sensor_id;sensor_type;location;lat;lon;timestamp;P1;durP1;ratioP1;P2;durP2;ratioP2
71164;SDS011;58859;55.132;-1.586;2024-01-30T00:01:21;3.88;;;1.25;;
71164;SDS011;58859;55.132;-1.586;2024-01-30T00:03:47;3.37;;;1.57;;
71164;SDS011;58859;55.132;-1.586;2024-01-30T00:06:12;3.90;;;1.23;;
71164;SDS011;58859;55.132;-1.586;2024-01-30T00:08:38;5.68;;;1.30;;
71164;SDS011;58859;55.132;-1.586;2024-01-30T00:11:03;4.97;;;1.30;;
71164;SDS011;58859;55.132;-1.586;2024-01-30T00:13:29;13.57;;;1.70;;
71164;SDS011;58859;55.132;-1.586;2024-01-30T00:15:54;5.00;;;1.07;;
71164;SDS011;58859;55.132;-1.586;2024-01-30T00:18:19;4.43;;;1.73;;
71164;SDS011;58859;55.132;-1.586;2024-01-30T00:20:45;3.70;;;1.40;;
71164;SDS011;58859;55.132;-1.586;2024-01-30T00:23:10;6.15;;;1.88;;
71164;SDS011;58859;55.132;-1.586;2024-01-30T00:25:36;7.03;;;1.70;;
71164;SDS011;58859;55.132;-1.586;2024-01-30T00:28:01;6.43;;;1.40;;
71164;SDS011;58859;55.132;-1.586;2024-01-30T00:30:27;5.70;;;1.40;;
71164;SDS011;58859;55.132;-1.586;2024-01-30T00:32:53;4.30;;;1.13;;
71164;SDS011;58859;55.132;-1.586;2024-01-30T00:35:19;3.97;;;1.48;;
71164;SDS011;58859;55.132;-1.586;2024-01-30T00:37:45;3.90;;;1.30;;
71164;SDS011;58859;55.132;-1.586;2024-01-30T00:40:10;3.00;;;0.82;;
71164;SDS011;58859;55.132;-1.586;2024-01-30T00:42:40;4.13;;;1.57;;
71164;SDS011;58859;55.132;-1.586;2024-01-30T00:45:11;2.63;;;0.98;;
71164;SDS011;58859;55.132;-1.586;2024-01-30T00:47:37;2.53;;;1.23;;
71164;SDS011;58859;55.132;-1.586;2024-01-30T00:50:02;2.40;;;0.97;;
71164;SDS011;58859;55.132;-1.586;2024-01-30T00:52:28;4.00;;;1.00;;
71164;SDS011;58859;55.132;-1.586;2024-01-30T00:54:53;2.13;;;0.98;;
71164;SDS011;58859;55.132;-1.586;2024-01-30T00:57:19;8.03;;;0.90;;
71164;SDS011;58859;55.132;-1.586;2024-01-30T00:59:44;4.87;;;0.90;;
71164;SDS011;58859;55.132;-1.586;2024-01-30T01:02:09;1.53;;;0.90;;
71164;SDS011;58859;55.132;-1.586;2024-01-30T01:04:35;2.20;;;1.03;;
71164;SDS011;58859;55.132;-1.586;2024-01-30T01:07:00;5.03;;;1.10;;
71164;SDS011;58859;55.132;-1.586;2024-01-30T01:09:26;2.33;;;0.70;;
71164;SDS011;58859;55.132;-1.586;2024-01-30T01:11:51;4.50;;;1.00;;
71164;SDS011;58859;55.132;-1.586;2024-01-30T01:14:17;1.70;;;0.90;;
71164;SDS011;58859;55.132;-1.586;2024-01-30T01:16:42;1.60;;;0.82;;
71164;SDS011;58859;55.132;-1.586;2024-01-30T01:19:08;2.05;;;0.70;;
71164;SDS011;58859;55.132;-1.586;2024-01-30T01:21:33;3.40;;;0.73;;
71164;SDS011;58859;55.132;-1.586;2024-01-30T01:23:58;3.23;;;0.83;;
71164;SDS011;58859;55.132;-1.586;2024-01-30T01:26:24;3.93;;;1.23;;
71164;SDS011;58859;55.132;-1.586;2024-01-30T01:28:49;4.97;;;0.70;;
71164;SDS011;58859;55.132;-1.586;2024-01-30T01:31:15;1.00;;;0.60;;
71164;SDS011;58859;55.132;-1.586;2024-01-30T01:33:40;3.07;;;0.90;;
71164;SDS011;58859;55.132;-1.586;2024-01-30T01:36:06;3.60;;;0.90;;
71164;SDS011;58859;55.132;-1.586;2024-01-30T01:38:31;2.40;;;0.55;;
71164;SDS011;58859;55.132;-1.586;2024-01-30T01:40:57;1.27;;;0.70;;
71164;SDS011;58859;55.132;-1.586;2024-01-30T01:43:22;3.63;;;1.40;;
71164;SDS011;58859;55.132;-1.586;2024-01-30T01:45:48;1.90;;;0.95;;
71164;SDS011;58859;55.132;-1.586;2024-01-30T01:48:13;2.83;;;0.60;;
71164;SDS011;58859;55.132;-1.586;2024-01-30T01:50:39;2.23;;;0.80;;
71164;SDS011;58859;55.132;-1.586;2024-01-30T01:53:04;1.63;;;0.77;;
71164;SDS011;58859;55.132;-1.586;2024-01-30T01:55:32;4.50;;;0.67;;
71164;SDS011;58859;55.132;-1.586;2024-01-30T01:58:00;2.20;;;0.45;;
71164;SDS011;58859;55.132;-1.586;2024-01-30T02:00:25;5.25;;;0.90;;
71164;SDS011;58859;55.132;-1.586;2024-01-30T02:02:51;4.35;;;0.65;;
71164;SDS011;58859;55.132;-1.586;2024-01-30T02:05:19;4.00;;;0.60;;
71164;SDS011;58859;55.132;-1.586;2024-01-30T02:07:45;4.50;;;0.40;;
71164;SDS011;58859;55.132;-1.586;2024-01-30T02:10:11;1.20;;;0.53;;
71164;SDS011;58859;55.132;-1.586;2024-01-30T02:12:38;0.82;;;0.73;;
71164;SDS011;58859;55.132;-1.586;2024-01-30T02:15:03;1.25;;;0.32;;
71164;SDS011;58859;55.132;-1.586;2024-01-30T02:17:30;3.30;;;0.70;;
71164;SDS011;58859;55.132;-1.586;2024-01-30T02:19:55;2.60;;;0.77;;
71164;SDS011;58859;55.132;-1.586;2024-01-30T02:22:21;2.20;;;0.53;;
71164;SDS011;58859;55.132;-1.586;2024-01-30T02:24:47;3.90;;;0.77;;
71164;SDS011;58859;55.132;-1.586;2024-01-30T02:27:12;3.47;;;0.67;;
71164;SDS011;58859;55.132;-1.586;2024-01-30T02:29:38;1.50;;;0.50;;
71164;SDS011;58859;55.132;-1.586;2024-01-30T02:32:03;1.80;;;0.80;;
71164;SDS011;58859;55.132;-1.586;2024-01-30T02:34:29;2.22;;;0.80;;
71164;SDS011;58859;55.132;-1.586;2024-01-30T02:36:54;2.92;;;0.63;;
71164;SDS011;58859;55.132;-1.586;2024-01-30T02:39:20;1.03;;;0.67;;
71164;SDS011;58859;55.132;-1.586;2024-01-30T02:41:45;4.03;;;0.80;;
71164;SDS011;58859;55.132;-1.586;2024-01-30T02:44:11;0.60;;;0.40;;
71164;SDS011;58859;55.132;-1.586;2024-01-30T02:46:36;3.60;;;0.35;;
71164;SDS011;58859;55.132;-1.586;2024-01-30T02:49:01;5.60;;;0.90;;
71164;SDS011;58859;55.132;-1.586;2024-01-30T02:51:27;1.47;;;0.70;;
71164;SDS011;58859;55.132;-1.586;2024-01-30T02:53:52;0.93;;;0.40;;
71164;SDS011;58859;55.132;-1.586;2024-01-30T02:56:18;3.00;;;0.60;;
71164;SDS011;58859;55.132;-1.586;2024-01-30T02:58:43;1.43;;;0.33;;
71164;SDS011;58859;55.132;-1.586;2024-01-30T03:01:08;1.05;;;0.52;;
71164;SDS011;58859;55.132;-1.586;2024-01-30T03:03:34;2.50;;;1.10;;
71164;SDS011;58859;55.132;-1.586;2024-01-30T03:06:01;2.60;;;0.68;;
71164;SDS011;58859;55.132;-1.586;2024-01-30T03:08:26;0.43;;;0.43;;
71164;SDS011;58859;55.132;-1.586;2024-01-30T03:10:52;1.08;;;0.40;;
71164;SDS011;58859;55.132;-1.586;2024-01-30T03:13:17;1.60;;;0.67;;
71164;SDS011;58859;55.132;-1.586;2024-01-30T03:15:43;1.97;;;0.90;;
71164;SDS011;58859;55.132;-1.586;2024-01-30T03:18:08;3.30;;;0.90;;
71164;SDS011;58859;55.132;-1.586;2024-01-30T03:20:34;0.60;;;0.57;;
71164;SDS011;58859;55.132;-1.586;2024-01-30T03:22:59;1.03;;;0.43;;
71164;SDS011;58859;55.132;-1.586;2024-01-30T03:25:25;1.38;;;0.38;;
71164;SDS011;58859;55.132;-1.586;2024-01-30T03:27:51;0.47;;;0.30;;
71164;SDS011;58859;55.132;-1.586;2024-01-30T03:30:16;3.33;;;0.60;;
71164;SDS011;58859;55.132;-1.586;2024-01-30T03:32:42;4.22;;;1.55;;
71164;SDS011;58859;55.132;-1.586;2024-01-30T03:35:08;3.30;;;0.60;;
71164;SDS011;58859;55.132;-1.586;2024-01-30T03:37:34;1.10;;;0.55;;
71164;SDS011;58859;55.132;-1.586;2024-01-30T03:39:59;1.40;;;0.40;;
71164;SDS011;58859;55.132;-1.586;2024-01-30T03:42:24;1.60;;;0.80;;
71164;SDS011;58859;55.132;-1.586;2024-01-30T03:44:50;0.32;;;0.32;;
71164;SDS011;58859;55.132;-1.586;2024-01-30T03:47:20;2.05;;;0.40;;
71164;SDS011;58859;55.132;-1.586;2024-01-30T03:49:45;1.53;;;0.33;;
71164;SDS011;58859;55.132;-1.586;2024-01-30T03:52:11;1.07;;;0.60;;
71164;SDS011;58859;55.132;-1.586;2024-01-30T03:54:36;0.40;;;0.40;;
71164;SDS011;58859;55.132;-1.586;2024-01-30T03:57:02;2.10;;;0.60;;
71164;SDS011;58859;55.132;-1.586;2024-01-30T03:59:27;1.83;;;0.57;;
71164;SDS011;58859;55.132;-1.586;2024-01-30T04:01:53;3.88;;;0.55;;
71164;SDS011;58859;55.132;-1.586;2024-01-30T04:04:18;4.70;;;1.17;;
71164;SDS011;58859;55.132;-1.586;2024-01-30T04:06:44;1.80;;;0.50;;
71164;SDS011;58859;55.132;-1.586;2024-01-30T04:09:10;1.48;;;0.70;;
71164;SDS011;58859;55.132;-1.586;2024-01-30T04:11:36;1.80;;;0.37;;
71164;SDS011;58859;55.132;-1.586;2024-01-30T04:14:01;2.17;;;0.75;;
71164;SDS011;58859;55.132;-1.586;2024-01-30T04:16:27;1.40;;;0.40;;
71164;SDS011;58859;55.132;-1.586;2024-01-30T04:18:53;3.25;;;0.70;;
71164;SDS011;58859;55.132;-1.586;2024-01-30T04:21:20;1.23;;;0.30;;
71164;SDS011;58859;55.132;-1.586;2024-01-30T04:23:46;1.45;;;0.45;;
71164;SDS011;58859;55.132;-1.586;2024-01-30T04:26:12;2.85;;;0.70;;
71164;SDS011;58859;55.132;-1.586;2024-01-30T04:28:37;1.60;;;0.37;;
71164;SDS011;58859;55.132;-1.586;2024-01-30T04:31:02;1.13;;;0.40;;
71164;SDS011;58859;55.132;-1.586;2024-01-30T04:33:28;0.77;;;0.47;;
71164;SDS011;58859;55.132;-1.586;2024-01-30T04:35:53;0.30;;;0.30;;
71164;SDS011;58859;55.132;-1.586;2024-01-30T04:38:19;0.33;;;0.33;;
71164;SDS011;58859;55.132;-1.586;2024-01-30T04:40:44;0.23;;;0.20;;
71164;SDS011;58859;55.132;-1.586;2024-01-30T04:43:09;2.00;;;0.30;;
71164;SDS011;58859;55.132;-1.586;2024-01-30T04:45:35;2.67;;;0.50;;
71164;SDS011;58859;55.132;-1.586;2024-01-30T04:48:00;0.52;;;0.25;;
71164;SDS011;58859;55.132;-1.586;2024-01-30T04:50:26;1.48;;;0.43;;
71164;SDS011;58859;55.132;-1.586;2024-01-30T04:52:51;0.40;;;0.40;;
71164;SDS011;58859;55.132;-1.586;2024-01-30T04:55:17;2.08;;;0.50;;
71164;SDS011;58859;55.132;-1.586;2024-01-30T04:57:42;0.63;;;0.20;;
71164;SDS011;58859;55.132;-1.586;2024-01-30T05:00:08;0.40;;;0.23;;
71164;SDS011;58859;55.132;-1.586;2024-01-30T05:02:34;0.40;;;0.38;;
71164;SDS011;58859;55.132;-1.586;2024-01-30T05:04:59;2.57;;;0.60;;
71164;SDS011;58859;55.132;-1.586;2024-01-30T05:07:25;0.60;;;0.50;;
71164;SDS011;58859;55.132;-1.586;2024-01-30T05:09:50;1.70;;;0.55;;
71164;SDS011;58859;55.132;-1.586;2024-01-30T05:12:16;0.67;;;0.50;;
71164;SDS011;58859;55.132;-1.586;2024-01-30T05:14:41;0.87;;;0.60;;
71164;SDS011;58859;55.132;-1.586;2024-01-30T05:17:07;0.63;;;0.40;;
71164;SDS011;58859;55.132;-1.586;2024-01-30T05:19:35;0.50;;;0.30;;
71164;SDS011;58859;55.132;-1.586;2024-01-30T05:22:00;0.60;;;0.30;;
71164;SDS011;58859;55.132;-1.586;2024-01-30T05:24:25;0.65;;;0.30;;
71164;SDS011;58859;55.132;-1.586;2024-01-30T05:26:51;0.88;;;0.60;;
71164;SDS011;58859;55.132;-1.586;2024-01-30T05:29:16;1.87;;;0.50;;
71164;SDS011;58859;55.132;-1.586;2024-01-30T05:31:42;1.17;;;1.07;;
71164;SDS011;58859;55.132;-1.586;2024-01-30T05:34:07;0.63;;;0.20;;
71164;SDS011;58859;55.132;-1.586;2024-01-30T05:36:34;0.60;;;0.57;;
71164;SDS011;58859;55.132;-1.586;2024-01-30T05:38:59;2.30;;;0.70;;
71164;SDS011;58859;55.132;-1.586;2024-01-30T05:41:25;2.67;;;0.40;;
71164;SDS011;58859;55.132;-1.586;2024-01-30T05:43:50;0.30;;;0.30;;
71164;SDS011;58859;55.132;-1.586;2024-01-30T05:46:18;3.38;;;0.50;;
71164;SDS011;58859;55.132;-1.586;2024-01-30T05:48:44;1.73;;;0.50;;
71164;SDS011;58859;55.132;-1.586;2024-01-30T05:51:09;1.90;;;0.50;;
71164;SDS011;58859;55.132;-1.586;2024-01-30T05:53:35;0.80;;;0.15;;
71164;SDS011;58859;55.132;-1.586;2024-01-30T05:56:03;1.80;;;0.30;;
71164;SDS011;58859;55.132;-1.586;2024-01-30T05:58:28;0.95;;;0.50;;
71164;SDS011;58859;55.132;-1.586;2024-01-30T06:00:54;1.27;;;0.33;;
71164;SDS011;58859;55.132;-1.586;2024-01-30T06:03:20;2.13;;;0.40;;
71164;SDS011;58859;55.132;-1.586;2024-01-30T06:05:46;0.20;;;0.20;;
71164;SDS011;58859;55.132;-1.586;2024-01-30T06:08:11;1.53;;;0.30;;
71164;SDS011;58859;55.132;-1.586;2024-01-30T06:10:37;2.20;;;0.40;;
71164;SDS011;58859;55.132;-1.586;2024-01-30T06:13:02;0.80;;;0.50;;
71164;SDS011;58859;55.132;-1.586;2024-01-30T06:15:28;0.32;;;0.32;;
71164;SDS011;58859;55.132;-1.586;2024-01-30T06:17:54;0.50;;;0.30;;
71164;SDS011;58859;55.132;-1.586;2024-01-30T06:20:20;2.00;;;0.20;;
71164;SDS011;58859;55.132;-1.586;2024-01-30T06:22:45;0.30;;;0.30;;
71164;SDS011;58859;55.132;-1.586;2024-01-30T06:25:11;1.40;;;0.43;;
71164;SDS011;58859;55.132;-1.586;2024-01-30T06:27:37;0.30;;;0.30;;
71164;SDS011;58859;55.132;-1.586;2024-01-30T06:30:02;0.30;;;0.30;;
71164;SDS011;58859;55.132;-1.586;2024-01-30T06:32:29;0.40;;;0.40;;
71164;SDS011;58859;55.132;-1.586;2024-01-30T06:34:59;1.75;;;0.50;;
71164;SDS011;58859;55.132;-1.586;2024-01-30T06:37:24;0.68;;;0.30;;
71164;SDS011;58859;55.132;-1.586;2024-01-30T06:39:50;2.53;;;0.30;;
71164;SDS011;58859;55.132;-1.586;2024-01-30T06:42:15;0.60;;;0.40;;
71164;SDS011;58859;55.132;-1.586;2024-01-30T06:44:41;0.40;;;0.40;;
71164;SDS011;58859;55.132;-1.586;2024-01-30T06:47:06;0.45;;;0.30;;
71164;SDS011;58859;55.132;-1.586;2024-01-30T06:49:32;1.17;;;0.47;;
71164;SDS011;58859;55.132;-1.586;2024-01-30T06:51:57;1.20;;;0.40;;
71164;SDS011;58859;55.132;-1.586;2024-01-30T06:54:22;0.70;;;0.30;;
71164;SDS011;58859;55.132;-1.586;2024-01-30T06:56:48;0.87;;;0.30;;
71164;SDS011;58859;55.132;-1.586;2024-01-30T06:59:13;0.30;;;0.30;;
71164;SDS011;58859;55.132;-1.586;2024-01-30T07:01:39;0.75;;;0.28;;
71164;SDS011;58859;55.132;-1.586;2024-01-30T07:04:04;0.33;;;0.33;;
71164;SDS011;58859;55.132;-1.586;2024-01-30T07:06:29;0.30;;;0.30;;
71164;SDS011;58859;55.132;-1.586;2024-01-30T07:08:55;0.67;;;0.63;;
71164;SDS011;58859;55.132;-1.586;2024-01-30T07:11:21;2.80;;;0.60;;
71164;SDS011;58859;55.132;-1.586;2024-01-30T07:13:48;3.08;;;0.60;;
71164;SDS011;58859;55.132;-1.586;2024-01-30T07:16:15;1.53;;;0.50;;
71164;SDS011;58859;55.132;-1.586;2024-01-30T07:18:40;0.30;;;0.30;;
71164;SDS011;58859;55.132;-1.586;2024-01-30T07:21:06;2.77;;;0.40;;
71164;SDS011;58859;55.132;-1.586;2024-01-30T07:23:31;2.22;;;0.45;;
71164;SDS011;58859;55.132;-1.586;2024-01-30T07:25:59;0.40;;;0.30;;
71164;SDS011;58859;55.132;-1.586;2024-01-30T07:28:24;0.50;;;0.40;;
71164;SDS011;58859;55.132;-1.586;2024-01-30T07:30:50;2.03;;;0.40;;
71164;SDS011;58859;55.132;-1.586;2024-01-30T07:33:15;1.00;;;0.40;;
71164;SDS011;58859;55.132;-1.586;2024-01-30T07:35:41;0.50;;;0.50;;
71164;SDS011;58859;55.132;-1.586;2024-01-30T07:38:06;0.40;;;0.40;;
71164;SDS011;58859;55.132;-1.586;2024-01-30T07:40:32;0.90;;;0.70;;
71164;SDS011;58859;55.132;-1.586;2024-01-30T07:42:58;3.00;;;0.65;;
71164;SDS011;58859;55.132;-1.586;2024-01-30T07:45:24;1.00;;;0.40;;
71164;SDS011;58859;55.132;-1.586;2024-01-30T07:47:51;0.82;;;0.40;;
71164;SDS011;58859;55.132;-1.586;2024-01-30T07:50:17;0.60;;;0.20;;
71164;SDS011;58859;55.132;-1.586;2024-01-30T07:52:43;0.55;;;0.30;;
71164;SDS011;58859;55.132;-1.586;2024-01-30T07:55:08;0.55;;;0.52;;
71164;SDS011;58859;55.132;-1.586;2024-01-30T07:57:34;0.52;;;0.50;;
71164;SDS011;58859;55.132;-1.586;2024-01-30T08:00:00;0.45;;;0.30;;
71164;SDS011;58859;55.132;-1.586;2024-01-30T08:02:26;0.70;;;0.63;;
71164;SDS011;58859;55.132;-1.586;2024-01-30T08:04:52;1.83;;;0.60;;
71164;SDS011;58859;55.132;-1.586;2024-01-30T08:07:17;0.83;;;0.50;;
71164;SDS011;58859;55.132;-1.586;2024-01-30T08:09:43;1.23;;;0.77;;
71164;SDS011;58859;55.132;-1.586;2024-01-30T08:12:09;2.95;;;0.70;;
71164;SDS011;58859;55.132;-1.586;2024-01-30T08:14:34;0.47;;;0.43;;
71164;SDS011;58859;55.132;-1.586;2024-01-30T08:17:00;2.95;;;0.68;;
71164;SDS011;58859;55.132;-1.586;2024-01-30T08:19:25;4.60;;;0.73;;
71164;SDS011;58859;55.132;-1.586;2024-01-30T08:21:51;3.63;;;0.73;;
71164;SDS011;58859;55.132;-1.586;2024-01-30T08:24:16;4.53;;;0.90;;
71164;SDS011;58859;55.132;-1.586;2024-01-30T08:26:41;2.35;;;0.70;;
71164;SDS011;58859;55.132;-1.586;2024-01-30T08:29:07;5.78;;;1.17;;
71164;SDS011;58859;55.132;-1.586;2024-01-30T08:31:32;4.60;;;1.10;;
71164;SDS011;58859;55.132;-1.586;2024-01-30T08:33:58;2.63;;;0.67;;
71164;SDS011;58859;55.132;-1.586;2024-01-30T08:36:25;3.78;;;0.80;;
71164;SDS011;58859;55.132;-1.586;2024-01-30T08:38:50;2.03;;;0.80;;
71164;SDS011;58859;55.132;-1.586;2024-01-30T08:41:16;1.60;;;0.83;;
71164;SDS011;58859;55.132;-1.586;2024-01-30T08:43:41;5.13;;;0.75;;
71164;SDS011;58859;55.132;-1.586;2024-01-30T08:46:07;1.30;;;0.80;;
71164;SDS011;58859;55.132;-1.586;2024-01-30T08:48:32;2.73;;;1.03;;
71164;SDS011;58859;55.132;-1.586;2024-01-30T08:50:57;1.23;;;0.70;;
71164;SDS011;58859;55.132;-1.586;2024-01-30T08:53:23;2.53;;;0.73;;
71164;SDS011;58859;55.132;-1.586;2024-01-30T08:55:48;2.80;;;1.00;;
71164;SDS011;58859;55.132;-1.586;2024-01-30T08:58:14;2.03;;;0.63;;
71164;SDS011;58859;55.132;-1.586;2024-01-30T09:00:40;2.47;;;0.90;;
71164;SDS011;58859;55.132;-1.586;2024-01-30T09:03:06;1.65;;;1.10;;
71164;SDS011;58859;55.132;-1.586;2024-01-30T09:05:31;2.97;;;0.80;;
71164;SDS011;58859;55.132;-1.586;2024-01-30T09:07:57;3.43;;;0.80;;
71164;SDS011;58859;55.132;-1.586;2024-01-30T09:10:22;2.25;;;0.80;;
71164;SDS011;58859;55.132;-1.586;2024-01-30T09:12:47;2.67;;;0.80;;
71164;SDS011;58859;55.132;-1.586;2024-01-30T09:15:14;2.28;;;0.75;;
71164;SDS011;58859;55.132;-1.586;2024-01-30T09:17:39;4.30;;;1.10;;
71164;SDS011;58859;55.132;-1.586;2024-01-30T09:20:05;2.07;;;0.80;;
71164;SDS011;58859;55.132;-1.586;2024-01-30T09:22:31;2.42;;;0.80;;
71164;SDS011;58859;55.132;-1.586;2024-01-30T09:24:57;3.03;;;0.93;;
71164;SDS011;58859;55.132;-1.586;2024-01-30T09:27:22;2.60;;;0.98;;
71164;SDS011;58859;55.132;-1.586;2024-01-30T09:29:48;0.63;;;0.63;;
71164;SDS011;58859;55.132;-1.586;2024-01-30T09:32:13;0.98;;;0.73;;
71164;SDS011;58859;55.132;-1.586;2024-01-30T09:34:39;2.13;;;0.75;;
71164;SDS011;58859;55.132;-1.586;2024-01-30T09:37:04;3.03;;;0.87;;
71164;SDS011;58859;55.132;-1.586;2024-01-30T09:39:30;1.73;;;1.53;;
71164;SDS011;58859;55.132;-1.586;2024-01-30T09:41:58;5.45;;;1.30;;
71164;SDS011;58859;55.132;-1.586;2024-01-30T09:44:38;3.83;;;0.70;;
71164;SDS011;58859;55.132;-1.586;2024-01-30T09:47:07;2.30;;;0.80;;
71164;SDS011;58859;55.132;-1.586;2024-01-30T09:49:33;4.00;;;0.65;;
71164;SDS011;58859;55.132;-1.586;2024-01-30T09:52:00;3.60;;;1.07;;
71164;SDS011;58859;55.132;-1.586;2024-01-30T09:54:28;1.75;;;0.65;;
71164;SDS011;58859;55.132;-1.586;2024-01-30T09:56:56;3.63;;;0.82;;
71164;SDS011;58859;55.132;-1.586;2024-01-30T09:59:21;2.00;;;0.80;;
71164;SDS011;58859;55.132;-1.586;2024-01-30T10:01:47;1.75;;;0.95;;
71164;SDS011;58859;55.132;-1.586;2024-01-30T10:04:13;0.73;;;0.70;;
71164;SDS011;58859;55.132;-1.586;2024-01-30T10:06:38;5.13;;;1.47;;
71164;SDS011;58859;55.132;-1.586;2024-01-30T10:09:05;5.68;;;1.10;;
71164;SDS011;58859;55.132;-1.586;2024-01-30T10:11:30;3.77;;;0.90;;
71164;SDS011;58859;55.132;-1.586;2024-01-30T10:13:56;2.28;;;0.75;;
71164;SDS011;58859;55.132;-1.586;2024-01-30T10:16:21;4.80;;;0.90;;
71164;SDS011;58859;55.132;-1.586;2024-01-30T10:18:47;1.93;;;0.60;;
71164;SDS011;58859;55.132;-1.586;2024-01-30T10:21:12;2.88;;;1.27;;
71164;SDS011;58859;55.132;-1.586;2024-01-30T10:23:38;1.50;;;0.90;;
71164;SDS011;58859;55.132;-1.586;2024-01-30T10:26:03;2.70;;;1.10;;
71164;SDS011;58859;55.132;-1.586;2024-01-30T10:28:29;2.97;;;1.10;;
71164;SDS011;58859;55.132;-1.586;2024-01-30T10:30:58;3.67;;;0.80;;
71164;SDS011;58859;55.132;-1.586;2024-01-30T10:33:25;5.25;;;0.73;;
71164;SDS011;58859;55.132;-1.586;2024-01-30T10:35:55;2.63;;;0.85;;
71164;SDS011;58859;55.132;-1.586;2024-01-30T10:38:31;1.95;;;0.95;;
71164;SDS011;58859;55.132;-1.586;2024-01-30T10:40:58;1.77;;;0.63;;
71164;SDS011;58859;55.132;-1.586;2024-01-30T10:43:30;3.63;;;0.90;;
71164;SDS011;58859;55.132;-1.586;2024-01-30T10:46:00;3.22;;;0.95;;
71164;SDS011;58859;55.132;-1.586;2024-01-30T10:48:43;1.73;;;0.73;;
71164;SDS011;58859;55.132;-1.586;2024-01-30T10:51:15;2.67;;;0.90;;
71164;SDS011;58859;55.132;-1.586;2024-01-30T10:53:41;3.87;;;0.67;;
71164;SDS011;58859;55.132;-1.586;2024-01-30T10:56:11;3.47;;;0.93;;
71164;SDS011;58859;55.132;-1.586;2024-01-30T10:58:38;3.60;;;0.73;;
71164;SDS011;58859;55.132;-1.586;2024-01-30T11:01:03;2.70;;;0.70;;
71164;SDS011;58859;55.132;-1.586;2024-01-30T11:03:31;4.70;;;0.70;;
71164;SDS011;58859;55.132;-1.586;2024-01-30T11:06:00;3.00;;;0.75;;
71164;SDS011;58859;55.132;-1.586;2024-01-30T11:08:26;2.10;;;0.90;;
71164;SDS011;58859;55.132;-1.586;2024-01-30T11:10:57;2.60;;;0.93;;
71164;SDS011;58859;55.132;-1.586;2024-01-30T11:13:27;1.88;;;0.90;;
71164;SDS011;58859;55.132;-1.586;2024-01-30T11:15:53;1.95;;;0.70;;
71164;SDS011;58859;55.132;-1.586;2024-01-30T11:18:23;2.80;;;0.80;;
71164;SDS011;58859;55.132;-1.586;2024-01-30T11:20:55;3.53;;;0.70;;
71164;SDS011;58859;55.132;-1.586;2024-01-30T11:23:22;5.22;;;1.35;;
71164;SDS011;58859;55.132;-1.586;2024-01-30T11:25:47;4.55;;;0.60;;
71164;SDS011;58859;55.132;-1.586;2024-01-30T11:28:14;3.60;;;0.90;;
71164;SDS011;58859;55.132;-1.586;2024-01-30T11:30:43;4.72;;;0.95;;
71164;SDS011;58859;55.132;-1.586;2024-01-30T11:35:42;0.90;;;0.47;;
71164;SDS011;58859;55.132;-1.586;2024-01-30T11:38:09;2.20;;;1.08;;
71164;SDS011;58859;55.132;-1.586;2024-01-30T11:40:36;2.88;;;0.60;;
71164;SDS011;58859;55.132;-1.586;2024-01-30T11:43:03;2.83;;;0.70;;
71164;SDS011;58859;55.132;-1.586;2024-01-30T11:45:30;4.47;;;0.60;;
71164;SDS011;58859;55.132;-1.586;2024-01-30T11:47:56;1.75;;;0.68;;
71164;SDS011;58859;55.132;-1.586;2024-01-30T11:50:25;4.55;;;0.75;;
71164;SDS011;58859;55.132;-1.586;2024-01-30T11:52:50;2.47;;;0.70;;
71164;SDS011;58859;55.132;-1.586;2024-01-30T11:55:16;2.92;;;0.70;;
71164;SDS011;58859;55.132;-1.586;2024-01-30T11:57:42;2.50;;;0.70;;
71164;SDS011;58859;55.132;-1.586;2024-01-30T12:00:15;4.80;;;1.13;;
71164;SDS011;58859;55.132;-1.586;2024-01-30T12:02:43;3.67;;;0.50;;
71164;SDS011;58859;55.132;-1.586;2024-01-30T12:05:13;2.22;;;0.38;;
71164;SDS011;58859;55.132;-1.586;2024-01-30T12:07:39;3.80;;;0.83;;
71164;SDS011;58859;55.132;-1.586;2024-01-30T12:10:04;1.42;;;0.47;;
71164;SDS011;58859;55.132;-1.586;2024-01-30T12:12:30;2.33;;;0.50;;
71164;SDS011;58859;55.132;-1.586;2024-01-30T12:14:56;1.92;;;0.60;;
71164;SDS011;58859;55.132;-1.586;2024-01-30T12:17:43;2.80;;;0.50;;
71164;SDS011;58859;55.132;-1.586;2024-01-30T12:22:35;4.32;;;0.95;;
71164;SDS011;58859;55.132;-1.586;2024-01-30T12:25:08;5.45;;;0.50;;
71164;SDS011;58859;55.132;-1.586;2024-01-30T12:27:38;2.10;;;0.47;;
71164;SDS011;58859;55.132;-1.586;2024-01-30T12:30:08;4.03;;;0.93;;
71164;SDS011;58859;55.132;-1.586;2024-01-30T12:32:35;3.25;;;0.85;;
71164;SDS011;58859;55.132;-1.586;2024-01-30T12:35:01;4.65;;;0.68;;
71164;SDS011;58859;55.132;-1.586;2024-01-30T12:37:27;2.78;;;0.90;;
71164;SDS011;58859;55.132;-1.586;2024-01-30T12:39:54;3.72;;;0.50;;
71164;SDS011;58859;55.132;-1.586;2024-01-30T12:42:20;4.95;;;1.10;;
71164;SDS011;58859;55.132;-1.586;2024-01-30T12:44:49;1.58;;;0.52;;
71164;SDS011;58859;55.132;-1.586;2024-01-30T12:47:14;2.13;;;0.40;;
71164;SDS011;58859;55.132;-1.586;2024-01-30T12:49:43;2.05;;;0.75;;
71164;SDS011;58859;55.132;-1.586;2024-01-30T12:52:10;1.55;;;0.63;;
71164;SDS011;58859;55.132;-1.586;2024-01-30T12:54:39;2.65;;;0.70;;
71164;SDS011;58859;55.132;-1.586;2024-01-30T12:57:05;0.70;;;0.40;;
71164;SDS011;58859;55.132;-1.586;2024-01-30T12:59:31;0.45;;;0.30;;
71164;SDS011;58859;55.132;-1.586;2024-01-30T13:01:58;1.58;;;0.40;;
71164;SDS011;58859;55.132;-1.586;2024-01-30T13:04:25;1.55;;;0.60;;
71164;SDS011;58859;55.132;-1.586;2024-01-30T13:06:51;3.28;;;0.70;;
71164;SDS011;58859;55.132;-1.586;2024-01-30T13:09:17;2.10;;;0.30;;
71164;SDS011;58859;55.132;-1.586;2024-01-30T13:11:42;1.97;;;0.50;;
71164;SDS011;58859;55.132;-1.586;2024-01-30T13:14:08;3.80;;;0.70;;
71164;SDS011;58859;55.132;-1.586;2024-01-30T13:16:33;3.23;;;0.50;;
71164;SDS011;58859;55.132;-1.586;2024-01-30T13:18:58;0.68;;;0.32;;
71164;SDS011;58859;55.132;-1.586;2024-01-30T13:21:26;2.47;;;0.80;;
71164;SDS011;58859;55.132;-1.586;2024-01-30T13:23:51;2.83;;;0.40;;
71164;SDS011;58859;55.132;-1.586;2024-01-30T13:26:19;1.08;;;0.40;;
71164;SDS011;58859;55.132;-1.586;2024-01-30T13:28:45;2.05;;;0.45;;
71164;SDS011;58859;55.132;-1.586;2024-01-30T13:31:10;1.80;;;0.53;;
71164;SDS011;58859;55.132;-1.586;2024-01-30T13:33:37;3.03;;;0.50;;
71164;SDS011;58859;55.132;-1.586;2024-01-30T13:36:02;1.03;;;0.50;;
71164;SDS011;58859;55.132;-1.586;2024-01-30T13:38:28;0.98;;;0.40;;
71164;SDS011;58859;55.132;-1.586;2024-01-30T13:40:53;0.70;;;0.50;;
71164;SDS011;58859;55.132;-1.586;2024-01-30T13:43:19;2.23;;;0.57;;
71164;SDS011;58859;55.132;-1.586;2024-01-30T13:45:44;0.60;;;0.50;;
71164;SDS011;58859;55.132;-1.586;2024-01-30T13:48:10;1.60;;;0.50;;
71164;SDS011;58859;55.132;-1.586;2024-01-30T13:50:37;1.58;;;0.60;;
71164;SDS011;58859;55.132;-1.586;2024-01-30T13:53:02;1.90;;;0.60;;
71164;SDS011;58859;55.132;-1.586;2024-01-30T13:55:29;1.95;;;0.93;;
71164;SDS011;58859;55.132;-1.586;2024-01-30T13:57:54;1.88;;;0.90;;
71164;SDS011;58859;55.132;-1.586;2024-01-30T14:00:21;1.85;;;0.70;;
71164;SDS011;58859;55.132;-1.586;2024-01-30T14:02:47;7.00;;;1.00;;
71164;SDS011;58859;55.132;-1.586;2024-01-30T14:05:13;2.00;;;0.90;;
71164;SDS011;58859;55.132;-1.586;2024-01-30T14:07:39;0.80;;;0.47;;
71164;SDS011;58859;55.132;-1.586;2024-01-30T14:10:05;2.53;;;0.80;;
71164;SDS011;58859;55.132;-1.586;2024-01-30T14:12:31;3.97;;;1.10;;
71164;SDS011;58859;55.132;-1.586;2024-01-30T14:14:56;2.83;;;0.90;;
71164;SDS011;58859;55.132;-1.586;2024-01-30T14:17:22;1.10;;;0.60;;
71164;SDS011;58859;55.132;-1.586;2024-01-30T14:19:47;2.67;;;0.50;;
71164;SDS011;58859;55.132;-1.586;2024-01-30T14:22:13;4.30;;;0.75;;
71164;SDS011;58859;55.132;-1.586;2024-01-30T14:24:38;3.78;;;0.82;;
71164;SDS011;58859;55.132;-1.586;2024-01-30T14:27:03;1.67;;;0.70;;
71164;SDS011;58859;55.132;-1.586;2024-01-30T14:29:29;0.60;;;0.60;;
71164;SDS011;58859;55.132;-1.586;2024-01-30T14:31:55;1.67;;;0.50;;